sensor_id;sensor_type;location;lat;lon;timestamp;P1;durP1;ratioP1;P2;durP2;ratioP2
31043;SDS011;17710;52.520;13.352;2023-02-10T00:00:12;25.70;;;12.32;;
31043;SDS011;17710;52.520;13.352;2023-02-10T00:02:39;25.95;;;13.32;;
31043;SDS011;17710;52.520;13.352;2023-02-10T00:05:06;24.75;;;12.82;;
31043;SDS011;17710;52.520;13.352;2023-02-10T00:07:32;31.33;;;13.50;;
31043;SDS011;17710;52.520;13.352;2023-02-10T00:09:59;31.75;;;13.30;;
31043;SDS011;17710;52.520;13.352;2023-02-10T00:12:25;27.23;;;12.18;;
31043;SDS011;17710;52.520;13.352;2023-02-10T00:14:52;27.98;;;13.20;;
31043;SDS011;17710;52.520;13.352;2023-02-10T00:17:19;26.63;;;13.60;;
31043;SDS011;17710;52.520;13.352;2023-02-10T00:19:46;25.50;;;12.43;;
31043;SDS011;17710;52.520;13.352;2023-02-10T00:22:12;25.55;;;10.48;;
31043;SDS011;17710;52.520;13.352;2023-02-10T00:24:38;27.75;;;12.98;;
31043;SDS011;17710;52.520;13.352;2023-02-10T00:27:05;29.40;;;13.23;;
31043;SDS011;17710;52.520;13.352;2023-02-10T00:29:31;32.25;;;12.77;;
31043;SDS011;17710;52.520;13.352;2023-02-10T00:31:58;27.30;;;12.45;;
31043;SDS011;17710;52.520;13.352;2023-02-10T00:34:25;27.35;;;13.13;;
31043;SDS011;17710;52.520;13.352;2023-02-10T00:36:53;30.95;;;13.10;;
31043;SDS011;17710;52.520;13.352;2023-02-10T00:39:19;25.83;;;13.05;;
31043;SDS011;17710;52.520;13.352;2023-02-10T00:41:45;30.05;;;12.55;;
31043;SDS011;17710;52.520;13.352;2023-02-10T00:44:12;27.80;;;12.55;;
31043;SDS011;17710;52.520;13.352;2023-02-10T00:46:38;26.50;;;12.48;;
31043;SDS011;17710;52.520;13.352;2023-02-10T00:49:05;27.42;;;12.70;;
31043;SDS011;17710;52.520;13.352;2023-02-10T00:51:33;31.02;;;15.02;;
31043;SDS011;17710;52.520;13.352;2023-02-10T00:54:00;28.85;;;12.82;;
31043;SDS011;17710;52.520;13.352;2023-02-10T00:56:27;24.67;;;12.57;;
31043;SDS011;17710;52.520;13.352;2023-02-10T00:58:54;29.60;;;12.98;;
31043;SDS011;17710;52.520;13.352;2023-02-10T01:01:20;27.90;;;14.05;;
31043;SDS011;17710;52.520;13.352;2023-02-10T01:03:47;29.83;;;13.45;;
31043;SDS011;17710;52.520;13.352;2023-02-10T01:06:13;29.67;;;13.90;;
31043;SDS011;17710;52.520;13.352;2023-02-10T01:08:41;27.88;;;13.70;;
31043;SDS011;17710;52.520;13.352;2023-02-10T01:11:09;28.05;;;13.80;;
31043;SDS011;17710;52.520;13.352;2023-02-10T01:13:37;28.90;;;13.75;;
31043;SDS011;17710;52.520;13.352;2023-02-10T01:16:05;35.65;;;14.57;;
31043;SDS011;17710;52.520;13.352;2023-02-10T01:18:34;32.25;;;13.50;;
31043;SDS011;17710;52.520;13.352;2023-02-10T01:21:05;29.80;;;14.25;;
31043;SDS011;17710;52.520;13.352;2023-02-10T01:23:32;27.20;;;13.10;;
31043;SDS011;17710;52.520;13.352;2023-02-10T01:26:00;29.63;;;14.88;;
31043;SDS011;17710;52.520;13.352;2023-02-10T01:28:26;33.45;;;14.77;;
31043;SDS011;17710;52.520;13.352;2023-02-10T01:30:53;33.00;;;14.77;;
31043;SDS011;17710;52.520;13.352;2023-02-10T01:33:19;27.45;;;13.73;;
31043;SDS011;17710;52.520;13.352;2023-02-10T01:35:46;29.73;;;13.75;;
31043;SDS011;17710;52.520;13.352;2023-02-10T01:38:12;31.40;;;14.45;;
31043;SDS011;17710;52.520;13.352;2023-02-10T01:40:38;32.50;;;14.32;;
31043;SDS011;17710;52.520;13.352;2023-02-10T01:43:09;33.03;;;13.70;;
31043;SDS011;17710;52.520;13.352;2023-02-10T01:45:40;30.08;;;13.98;;
31043;SDS011;17710;52.520;13.352;2023-02-10T01:48:07;32.50;;;15.15;;
31043;SDS011;17710;52.520;13.352;2023-02-10T01:50:36;32.40;;;13.82;;
31043;SDS011;17710;52.520;13.352;2023-02-10T01:53:07;33.42;;;14.18;;
31043;SDS011;17710;52.520;13.352;2023-02-10T01:55:34;34.45;;;14.85;;
31043;SDS011;17710;52.520;13.352;2023-02-10T01:58:02;35.60;;;14.68;;
31043;SDS011;17710;52.520;13.352;2023-02-10T02:00:32;34.35;;;15.43;;
31043;SDS011;17710;52.520;13.352;2023-02-10T02:02:59;30.05;;;14.70;;
31043;SDS011;17710;52.520;13.352;2023-02-10T02:05:30;32.83;;;14.57;;
31043;SDS011;17710;52.520;13.352;2023-02-10T02:07:59;31.15;;;14.85;;
31043;SDS011;17710;52.520;13.352;2023-02-10T02:10:33;32.33;;;14.90;;
31043;SDS011;17710;52.520;13.352;2023-02-10T02:13:23;36.20;;;16.15;;
31043;SDS011;17710;52.520;13.352;2023-02-10T02:16:00;28.70;;;14.60;;
31043;SDS011;17710;52.520;13.352;2023-02-10T02:18:38;33.47;;;15.40;;
31043;SDS011;17710;52.520;13.352;2023-02-10T02:21:15;32.60;;;15.38;;
31043;SDS011;17710;52.520;13.352;2023-02-10T02:24:00;31.83;;;14.80;;
31043;SDS011;17710;52.520;13.352;2023-02-10T02:26:40;32.92;;;14.00;;
31043;SDS011;17710;52.520;13.352;2023-02-10T02:32:13;31.27;;;15.93;;
31043;SDS011;17710;52.520;13.352;2023-02-10T02:34:44;31.70;;;14.85;;
31043;SDS011;17710;52.520;13.352;2023-02-10T02:37:16;36.83;;;16.17;;
31043;SDS011;17710;52.520;13.352;2023-02-10T02:39:48;38.20;;;16.85;;
31043;SDS011;17710;52.520;13.352;2023-02-10T02:42:19;35.92;;;16.08;;
31043;SDS011;17710;52.520;13.352;2023-02-10T02:44:48;29.88;;;15.07;;
31043;SDS011;17710;52.520;13.352;2023-02-10T02:47:21;30.65;;;15.50;;
31043;SDS011;17710;52.520;13.352;2023-02-10T02:50:01;32.22;;;14.45;;
31043;SDS011;17710;52.520;13.352;2023-02-10T02:52:38;32.97;;;15.85;;
31043;SDS011;17710;52.520;13.352;2023-02-10T02:55:17;35.03;;;16.02;;
31043;SDS011;17710;52.520;13.352;2023-02-10T02:57:52;32.45;;;14.70;;
31043;SDS011;17710;52.520;13.352;2023-02-10T03:00:26;32.90;;;15.18;;
31043;SDS011;17710;52.520;13.352;2023-02-10T03:02:57;32.30;;;15.48;;
31043;SDS011;17710;52.520;13.352;2023-02-10T03:05:27;42.35;;;16.95;;
31043;SDS011;17710;52.520;13.352;2023-02-10T03:07:55;32.05;;;15.68;;
31043;SDS011;17710;52.520;13.352;2023-02-10T03:10:21;32.92;;;16.83;;
31043;SDS011;17710;52.520;13.352;2023-02-10T03:12:48;33.33;;;16.02;;
31043;SDS011;17710;52.520;13.352;2023-02-10T03:15:16;32.28;;;15.10;;
31043;SDS011;17710;52.520;13.352;2023-02-10T03:17:43;37.35;;;15.43;;
31043;SDS011;17710;52.520;13.352;2023-02-10T03:20:11;38.97;;;16.88;;
31043;SDS011;17710;52.520;13.352;2023-02-10T03:22:37;36.80;;;15.65;;
31043;SDS011;17710;52.520;13.352;2023-02-10T03:25:04;37.28;;;16.52;;
31043;SDS011;17710;52.520;13.352;2023-02-10T03:27:31;40.15;;;17.25;;
31043;SDS011;17710;52.520;13.352;2023-02-10T03:29:57;38.33;;;16.60;;
31043;SDS011;17710;52.520;13.352;2023-02-10T03:32:24;37.42;;;18.17;;
31043;SDS011;17710;52.520;13.352;2023-02-10T03:34:50;38.80;;;17.92;;
31043;SDS011;17710;52.520;13.352;2023-02-10T03:37:18;40.65;;;18.33;;
31043;SDS011;17710;52.520;13.352;2023-02-10T03:39:45;43.05;;;17.65;;
31043;SDS011;17710;52.520;13.352;2023-02-10T03:42:12;40.80;;;18.30;;
31043;SDS011;17710;52.520;13.352;2023-02-10T03:44:38;38.90;;;17.95;;
31043;SDS011;17710;52.520;13.352;2023-02-10T03:47:05;47.50;;;18.95;;
31043;SDS011;17710;52.520;13.352;2023-02-10T03:49:31;39.05;;;18.27;;
31043;SDS011;17710;52.520;13.352;2023-02-10T03:52:00;47.20;;;19.67;;
31043;SDS011;17710;52.520;13.352;2023-02-10T03:54:28;41.88;;;19.92;;
31043;SDS011;17710;52.520;13.352;2023-02-10T03:56:56;44.63;;;19.20;;
31043;SDS011;17710;52.520;13.352;2023-02-10T03:59:22;44.03;;;20.25;;
31043;SDS011;17710;52.520;13.352;2023-02-10T04:01:50;43.85;;;19.35;;
31043;SDS011;17710;52.520;13.352;2023-02-10T04:04:16;50.63;;;20.05;;
31043;SDS011;17710;52.520;13.352;2023-02-10T04:06:43;47.17;;;19.27;;
31043;SDS011;17710;52.520;13.352;2023-02-10T04:09:09;39.60;;;19.50;;
31043;SDS011;17710;52.520;13.352;2023-02-10T04:11:37;46.67;;;21.55;;
31043;SDS011;17710;52.520;13.352;2023-02-10T04:14:04;53.05;;;22.10;;
31043;SDS011;17710;52.520;13.352;2023-02-10T04:16:30;48.15;;;21.55;;
31043;SDS011;17710;52.520;13.352;2023-02-10T04:18:58;47.30;;;21.35;;
31043;SDS011;17710;52.520;13.352;2023-02-10T04:21:25;53.00;;;22.48;;
31043;SDS011;17710;52.520;13.352;2023-02-10T04:23:52;49.03;;;20.75;;
31043;SDS011;17710;52.520;13.352;2023-02-10T04:26:19;54.42;;;20.50;;
31043;SDS011;17710;52.520;13.352;2023-02-10T04:28:46;52.40;;;22.05;;
31043;SDS011;17710;52.520;13.352;2023-02-10T04:31:13;52.40;;;22.52;;
31043;SDS011;17710;52.520;13.352;2023-02-10T04:33:40;54.85;;;21.90;;
31043;SDS011;17710;52.520;13.352;2023-02-10T04:36:07;58.17;;;22.23;;
31043;SDS011;17710;52.520;13.352;2023-02-10T04:38:33;59.58;;;24.02;;
31043;SDS011;17710;52.520;13.352;2023-02-10T04:41:00;57.88;;;23.27;;
31043;SDS011;17710;52.520;13.352;2023-02-10T04:43:27;53.72;;;24.00;;
31043;SDS011;17710;52.520;13.352;2023-02-10T04:45:55;50.03;;;22.63;;
31043;SDS011;17710;52.520;13.352;2023-02-10T04:48:22;55.45;;;23.45;;
31043;SDS011;17710;52.520;13.352;2023-02-10T04:50:48;57.85;;;23.63;;
31043;SDS011;17710;52.520;13.352;2023-02-10T04:53:15;52.47;;;24.67;;
31043;SDS011;17710;52.520;13.352;2023-02-10T04:55:41;52.72;;;22.17;;
31043;SDS011;17710;52.520;13.352;2023-02-10T04:58:08;58.10;;;23.35;;
31043;SDS011;17710;52.520;13.352;2023-02-10T05:00:34;59.20;;;24.05;;
31043;SDS011;17710;52.520;13.352;2023-02-10T05:03:02;52.95;;;23.10;;
31043;SDS011;17710;52.520;13.352;2023-02-10T05:05:29;52.25;;;23.17;;
31043;SDS011;17710;52.520;13.352;2023-02-10T05:07:55;57.75;;;24.35;;
31043;SDS011;17710;52.520;13.352;2023-02-10T05:10:21;52.20;;;23.65;;
31043;SDS011;17710;52.520;13.352;2023-02-10T05:12:48;55.78;;;23.17;;
31043;SDS011;17710;52.520;13.352;2023-02-10T05:15:15;61.63;;;24.65;;
31043;SDS011;17710;52.520;13.352;2023-02-10T05:17:44;63.72;;;24.75;;
31043;SDS011;17710;52.520;13.352;2023-02-10T05:20:12;55.05;;;24.23;;
31043;SDS011;17710;52.520;13.352;2023-02-10T05:22:38;55.40;;;23.80;;
31043;SDS011;17710;52.520;13.352;2023-02-10T05:25:06;58.25;;;24.45;;
31043;SDS011;17710;52.520;13.352;2023-02-10T05:27:34;60.13;;;24.60;;
31043;SDS011;17710;52.520;13.352;2023-02-10T05:30:01;58.90;;;25.20;;
31043;SDS011;17710;52.520;13.352;2023-02-10T05:32:29;57.33;;;23.42;;
31043;SDS011;17710;52.520;13.352;2023-02-10T05:34:55;62.10;;;24.88;;
31043;SDS011;17710;52.520;13.352;2023-02-10T05:37:23;50.90;;;24.13;;
31043;SDS011;17710;52.520;13.352;2023-02-10T05:39:49;55.55;;;24.88;;
31043;SDS011;17710;52.520;13.352;2023-02-10T05:42:16;60.40;;;25.58;;
31043;SDS011;17710;52.520;13.352;2023-02-10T05:44:42;64.03;;;25.90;;
31043;SDS011;17710;52.520;13.352;2023-02-10T05:47:08;66.10;;;25.98;;
31043;SDS011;17710;52.520;13.352;2023-02-10T05:49:35;59.47;;;26.27;;
31043;SDS011;17710;52.520;13.352;2023-02-10T05:52:01;53.00;;;24.05;;
31043;SDS011;17710;52.520;13.352;2023-02-10T05:54:29;59.03;;;25.63;;
31043;SDS011;17710;52.520;13.352;2023-02-10T05:56:56;68.93;;;25.42;;
31043;SDS011;17710;52.520;13.352;2023-02-10T05:59:22;60.13;;;25.25;;
31043;SDS011;17710;52.520;13.352;2023-02-10T06:01:49;66.38;;;26.15;;
31043;SDS011;17710;52.520;13.352;2023-02-10T06:04:16;62.45;;;26.88;;
31043;SDS011;17710;52.520;13.352;2023-02-10T06:06:42;55.42;;;25.00;;
31043;SDS011;17710;52.520;13.352;2023-02-10T06:09:08;62.88;;;26.25;;
31043;SDS011;17710;52.520;13.352;2023-02-10T06:11:36;65.22;;;26.25;;
31043;SDS011;17710;52.520;13.352;2023-02-10T06:14:03;56.55;;;24.38;;
31043;SDS011;17710;52.520;13.352;2023-02-10T06:16:29;64.30;;;26.30;;
31043;SDS011;17710;52.520;13.352;2023-02-10T06:18:56;62.28;;;25.27;;
31043;SDS011;17710;52.520;13.352;2023-02-10T06:21:22;62.00;;;26.02;;
31043;SDS011;17710;52.520;13.352;2023-02-10T06:23:49;59.20;;;25.23;;
31043;SDS011;17710;52.520;13.352;2023-02-10T06:26:15;64.97;;;25.10;;
31043;SDS011;17710;52.520;13.352;2023-02-10T06:28:43;61.60;;;25.98;;
31043;SDS011;17710;52.520;13.352;2023-02-10T06:31:10;60.08;;;25.40;;
31043;SDS011;17710;52.520;13.352;2023-02-10T06:33:36;65.97;;;26.42;;
31043;SDS011;17710;52.520;13.352;2023-02-10T06:36:03;65.63;;;26.65;;
31043;SDS011;17710;52.520;13.352;2023-02-10T06:38:32;57.90;;;24.88;;
31043;SDS011;17710;52.520;13.352;2023-02-10T06:41:03;58.50;;;25.65;;
31043;SDS011;17710;52.520;13.352;2023-02-10T06:43:30;57.92;;;25.75;;
31043;SDS011;17710;52.520;13.352;2023-02-10T06:45:58;59.10;;;25.65;;
31043;SDS011;17710;52.520;13.352;2023-02-10T06:48:25;55.05;;;24.23;;
31043;SDS011;17710;52.520;13.352;2023-02-10T06:50:52;62.60;;;26.13;;
31043;SDS011;17710;52.520;13.352;2023-02-10T06:53:19;62.80;;;26.15;;
31043;SDS011;17710;52.520;13.352;2023-02-10T06:55:46;58.55;;;26.77;;
31043;SDS011;17710;52.520;13.352;2023-02-10T06:58:12;60.65;;;25.25;;
31043;SDS011;17710;52.520;13.352;2023-02-10T07:00:38;61.35;;;26.02;;
31043;SDS011;17710;52.520;13.352;2023-02-10T07:03:06;59.00;;;25.52;;
31043;SDS011;17710;52.520;13.352;2023-02-10T07:05:33;63.63;;;25.98;;
31043;SDS011;17710;52.520;13.352;2023-02-10T07:08:00;57.70;;;22.58;;
31043;SDS011;17710;52.520;13.352;2023-02-10T07:10:28;58.15;;;24.73;;
31043;SDS011;17710;52.520;13.352;2023-02-10T07:12:55;59.70;;;27.48;;
31043;SDS011;17710;52.520;13.352;2023-02-10T07:15:21;64.78;;;25.92;;
31043;SDS011;17710;52.520;13.352;2023-02-10T07:17:48;59.58;;;25.85;;
31043;SDS011;17710;52.520;13.352;2023-02-10T07:20:17;53.05;;;24.38;;
31043;SDS011;17710;52.520;13.352;2023-02-10T07:22:44;61.95;;;25.30;;
31043;SDS011;17710;52.520;13.352;2023-02-10T07:25:11;62.05;;;24.95;;
31043;SDS011;17710;52.520;13.352;2023-02-10T07:27:38;57.95;;;25.13;;
31043;SDS011;17710;52.520;13.352;2023-02-10T07:30:05;55.35;;;23.08;;
31043;SDS011;17710;52.520;13.352;2023-02-10T07:32:32;62.47;;;24.42;;
31043;SDS011;17710;52.520;13.352;2023-02-10T07:34:58;56.60;;;25.70;;
31043;SDS011;17710;52.520;13.352;2023-02-10T07:37:26;60.83;;;26.40;;
31043;SDS011;17710;52.520;13.352;2023-02-10T07:39:54;59.45;;;24.58;;
31043;SDS011;17710;52.520;13.352;2023-02-10T07:42:20;54.00;;;24.23;;
31043;SDS011;17710;52.520;13.352;2023-02-10T07:44:47;52.17;;;23.83;;
31043;SDS011;17710;52.520;13.352;2023-02-10T07:47:13;57.65;;;24.80;;
31043;SDS011;17710;52.520;13.352;2023-02-10T07:49:48;113.78;;;26.52;;
31043;SDS011;17710;52.520;13.352;2023-02-10T07:52:16;59.75;;;24.58;;
31043;SDS011;17710;52.520;13.352;2023-02-10T07:54:44;58.13;;;24.67;;
31043;SDS011;17710;52.520;13.352;2023-02-10T07:57:10;56.92;;;24.60;;
31043;SDS011;17710;52.520;13.352;2023-02-10T07:59:37;59.67;;;25.40;;
31043;SDS011;17710;52.520;13.352;2023-02-10T08:02:03;58.10;;;24.20;;
31043;SDS011;17710;52.520;13.352;2023-02-10T08:04:30;54.10;;;23.38;;
31043;SDS011;17710;52.520;13.352;2023-02-10T08:06:57;59.05;;;23.30;;
31043;SDS011;17710;52.520;13.352;2023-02-10T08:09:26;55.95;;;24.45;;
31043;SDS011;17710;52.520;13.352;2023-02-10T08:11:54;60.70;;;23.95;;
31043;SDS011;17710;52.520;13.352;2023-02-10T08:14:21;55.78;;;22.92;;
31043;SDS011;17710;52.520;13.352;2023-02-10T08:16:47;64.38;;;24.35;;
31043;SDS011;17710;52.520;13.352;2023-02-10T08:19:14;56.00;;;23.55;;
31043;SDS011;17710;52.520;13.352;2023-02-10T08:21:40;52.38;;;23.50;;
31043;SDS011;17710;52.520;13.352;2023-02-10T08:24:08;52.92;;;22.60;;
31043;SDS011;17710;52.520;13.352;2023-02-10T08:26:34;56.03;;;24.00;;
31043;SDS011;17710;52.520;13.352;2023-02-10T08:29:02;63.25;;;23.27;;
31043;SDS011;17710;52.520;13.352;2023-02-10T08:31:28;52.95;;;23.33;;
31043;SDS011;17710;52.520;13.352;2023-02-10T08:33:55;58.60;;;23.35;;
31043;SDS011;17710;52.520;13.352;2023-02-10T08:36:21;59.50;;;24.02;;
31043;SDS011;17710;52.520;13.352;2023-02-10T08:38:49;55.92;;;23.52;;
31043;SDS011;17710;52.520;13.352;2023-02-10T08:41:16;51.13;;;23.60;;
31043;SDS011;17710;52.520;13.352;2023-02-10T08:43:43;59.20;;;24.25;;
31043;SDS011;17710;52.520;13.352;2023-02-10T08:46:12;62.72;;;25.67;;
31043;SDS011;17710;52.520;13.352;2023-02-10T08:48:39;56.30;;;24.02;;
31043;SDS011;17710;52.520;13.352;2023-02-10T08:51:06;59.50;;;23.58;;
31043;SDS011;17710;52.520;13.352;2023-02-10T08:53:34;58.03;;;24.73;;
31043;SDS011;17710;52.520;13.352;2023-02-10T08:56:02;51.22;;;23.73;;
31043;SDS011;17710;52.520;13.352;2023-02-10T08:58:29;65.68;;;24.95;;
31043;SDS011;17710;52.520;13.352;2023-02-10T09:00:56;60.45;;;24.70;;
31043;SDS011;17710;52.520;13.352;2023-02-10T09:03:26;57.35;;;25.40;;
31043;SDS011;17710;52.520;13.352;2023-02-10T09:05:53;54.50;;;24.17;;
31043;SDS011;17710;52.520;13.352;2023-02-10T09:08:19;57.63;;;25.25;;
31043;SDS011;17710;52.520;13.352;2023-02-10T09:10:46;59.90;;;26.33;;
31043;SDS011;17710;52.520;13.352;2023-02-10T09:13:14;55.22;;;24.02;;
31043;SDS011;17710;52.520;13.352;2023-02-10T09:15:41;59.75;;;26.23;;
31043;SDS011;17710;52.520;13.352;2023-02-10T09:18:08;64.57;;;28.58;;
31043;SDS011;17710;52.520;13.352;2023-02-10T09:20:37;57.70;;;25.50;;
31043;SDS011;17710;52.520;13.352;2023-02-10T09:23:03;57.83;;;26.13;;
31043;SDS011;17710;52.520;13.352;2023-02-10T09:25:30;61.40;;;26.77;;
31043;SDS011;17710;52.520;13.352;2023-02-10T09:27:57;70.53;;;27.83;;
31043;SDS011;17710;52.520;13.352;2023-02-10T09:30:23;67.80;;;28.08;;
31043;SDS011;17710;52.520;13.352;2023-02-10T09:32:50;67.72;;;27.33;;
31043;SDS011;17710;52.520;13.352;2023-02-10T09:35:17;65.60;;;26.80;;
31043;SDS011;17710;52.520;13.352;2023-02-10T09:37:45;63.65;;;27.77;;
31043;SDS011;17710;52.520;13.352;2023-02-10T09:40:14;63.55;;;27.63;;
31043;SDS011;17710;52.520;13.352;2023-02-10T09:42:46;61.00;;;26.73;;
31043;SDS011;17710;52.520;13.352;2023-02-10T09:45:26;64.70;;;27.85;;
31043;SDS011;17710;52.520;13.352;2023-02-10T09:48:00;69.88;;;27.60;;
31043;SDS011;17710;52.520;13.352;2023-02-10T09:50:36;63.75;;;26.45;;
31043;SDS011;17710;52.520;13.352;2023-02-10T09:53:13;58.50;;;26.13;;
31043;SDS011;17710;52.520;13.352;2023-02-10T09:55:45;61.95;;;26.48;;
31043;SDS011;17710;52.520;13.352;2023-02-10T09:58:22;65.47;;;27.17;;
31043;SDS011;17710;52.520;13.352;2023-02-10T10:00:56;64.53;;;25.10;;
31043;SDS011;17710;52.520;13.352;2023-02-10T10:03:28;61.53;;;25.38;;
31043;SDS011;17710;52.520;13.352;2023-02-10T10:06:06;51.85;;;22.58;;
31043;SDS011;17710;52.520;13.352;2023-02-10T10:08:42;59.47;;;26.10;;
31043;SDS011;17710;52.520;13.352;2023-02-10T10:11:18;62.33;;;27.00;;
31043;SDS011;17710;52.520;13.352;2023-02-10T10:13:49;58.08;;;24.42;;
31043;SDS011;17710;52.520;13.352;2023-02-10T10:16:19;67.72;;;25.90;;
31043;SDS011;17710;52.520;13.352;2023-02-10T10:18:54;64.80;;;26.02;;
31043;SDS011;17710;52.520;13.352;2023-02-10T10:21:30;61.83;;;23.95;;
31043;SDS011;17710;52.520;13.352;2023-02-10T10:24:06;58.20;;;24.33;;
31043;SDS011;17710;52.520;13.352;2023-02-10T10:26:50;58.97;;;24.63;;
31043;SDS011;17710;52.520;13.352;2023-02-10T10:29:31;58.58;;;24.35;;
31043;SDS011;17710;52.520;13.352;2023-02-10T10:32:12;60.92;;;27.38;;
31043;SDS011;17710;52.520;13.352;2023-02-10T10:34:42;55.05;;;24.05;;
31043;SDS011;17710;52.520;13.352;2023-02-10T10:37:18;60.65;;;24.20;;
31043;SDS011;17710;52.520;13.352;2023-02-10T10:39:49;53.25;;;24.27;;
31043;SDS011;17710;52.520;13.352;2023-02-10T10:42:20;58.40;;;24.50;;
31043;SDS011;17710;52.520;13.352;2023-02-10T10:44:50;55.80;;;23.33;;
31043;SDS011;17710;52.520;13.352;2023-02-10T10:47:25;55.40;;;23.33;;
31043;SDS011;17710;52.520;13.352;2023-02-10T10:50:00;57.60;;;23.90;;
31043;SDS011;17710;52.520;13.352;2023-02-10T10:52:29;59.08;;;22.90;;
31043;SDS011;17710;52.520;13.352;2023-02-10T10:54:59;54.38;;;22.80;;
31043;SDS011;17710;52.520;13.352;2023-02-10T10:57:28;53.75;;;23.33;;
31043;SDS011;17710;52.520;13.352;2023-02-10T10:59:58;58.35;;;23.63;;
31043;SDS011;17710;52.520;13.352;2023-02-10T11:02:32;70.45;;;23.73;;
31043;SDS011;17710;52.520;13.352;2023-02-10T11:04:59;56.60;;;22.60;;
31043;SDS011;17710;52.520;13.352;2023-02-10T11:07:27;54.15;;;22.90;;
31043;SDS011;17710;52.520;13.352;2023-02-10T11:09:57;54.30;;;22.83;;
31043;SDS011;17710;52.520;13.352;2023-02-10T11:12:27;48.95;;;22.15;;
31043;SDS011;17710;52.520;13.352;2023-02-10T11:14:57;55.90;;;21.98;;
31043;SDS011;17710;52.520;13.352;2023-02-10T11:17:26;55.03;;;23.05;;
31043;SDS011;17710;52.520;13.352;2023-02-10T11:19:59;55.63;;;22.85;;
31043;SDS011;17710;52.520;13.352;2023-02-10T11:22:28;52.97;;;22.27;;
31043;SDS011;17710;52.520;13.352;2023-02-10T11:24:56;50.65;;;21.02;;
31043;SDS011;17710;52.520;13.352;2023-02-10T11:27:25;55.17;;;22.00;;
31043;SDS011;17710;52.520;13.352;2023-02-10T11:29:53;59.17;;;24.30;;
31043;SDS011;17710;52.520;13.352;2023-02-10T11:32:21;58.95;;;22.25;;
31043;SDS011;17710;52.520;13.352;2023-02-10T11:34:50;57.25;;;23.50;;
31043;SDS011;17710;52.520;13.352;2023-02-10T11:37:21;56.45;;;23.80;;
31043;SDS011;17710;52.520;13.352;2023-02-10T11:39:50;57.75;;;23.70;;
31043;SDS011;17710;52.520;13.352;2023-02-10T11:42:20;47.20;;;21.23;;
31043;SDS011;17710;52.520;13.352;2023-02-10T11:44:54;55.42;;;23.33;;
31043;SDS011;17710;52.520;13.352;2023-02-10T11:47:22;58.53;;;23.80;;
31043;SDS011;17710;52.520;13.352;2023-02-10T11:49:49;49.08;;;22.40;;
31043;SDS011;17710;52.520;13.352;2023-02-10T11:52:16;50.10;;;23.23;;
31043;SDS011;17710;52.520;13.352;2023-02-10T11:54:46;48.90;;;22.98;;
31043;SDS011;17710;52.520;13.352;2023-02-10T11:57:17;55.95;;;23.55;;
31043;SDS011;17710;52.520;13.352;2023-02-10T12:00:19;60.17;;;24.85;;
31043;SDS011;17710;52.520;13.352;2023-02-10T12:03:13;46.17;;;22.98;;
31043;SDS011;17710;52.520;13.352;2023-02-10T12:05:54;48.50;;;21.73;;
31043;SDS011;17710;52.520;13.352;2023-02-10T12:08:24;47.70;;;23.20;;
31043;SDS011;17710;52.520;13.352;2023-02-10T12:10:59;55.95;;;23.38;;
31043;SDS011;17710;52.520;13.352;2023-02-10T12:13:32;61.63;;;24.30;;
31043;SDS011;17710;52.520;13.352;2023-02-10T12:16:15;53.25;;;23.27;;
31043;SDS011;17710;52.520;13.352;2023-02-10T12:18:58;56.92;;;22.75;;
31043;SDS011;17710;52.520;13.352;2023-02-10T12:24:37;51.10;;;23.30;;
31043;SDS011;17710;52.520;13.352;2023-02-10T12:27:29;50.28;;;22.85;;
31043;SDS011;17710;52.520;13.352;2023-02-10T12:30:05;49.65;;;22.48;;
31043;SDS011;17710;52.520;13.352;2023-02-10T12:32:46;52.47;;;22.75;;
31043;SDS011;17710;52.520;13.352;2023-02-10T12:35:21;51.58;;;21.75;;
31043;SDS011;17710;52.520;13.352;2023-02-10T12:37:57;57.63;;;23.33;;
31043;SDS011;17710;52.520;13.352;2023-02-10T12:43:28;49.72;;;21.88;;
31043;SDS011;17710;52.520;13.352;2023-02-10T12:46:11;52.10;;;20.45;;
31043;SDS011;17710;52.520;13.352;2023-02-10T12:48:46;49.10;;;21.23;;
31043;SDS011;17710;52.520;13.352;2023-02-10T12:51:21;45.60;;;21.25;;
31043;SDS011;17710;52.520;13.352;2023-02-10T12:53:59;54.72;;;22.75;;
31043;SDS011;17710;52.520;13.352;2023-02-10T12:56:31;50.15;;;21.50;;
31043;SDS011;17710;52.520;13.352;2023-02-10T12:59:04;51.47;;;20.42;;
31043;SDS011;17710;52.520;13.352;2023-02-10T13:01:37;49.15;;;20.15;;
31043;SDS011;17710;52.520;13.352;2023-02-10T13:04:12;49.28;;;20.35;;
31043;SDS011;17710;52.520;13.352;2023-02-10T13:06:44;49.08;;;21.70;;
31043;SDS011;17710;52.520;13.352;2023-02-10T13:09:15;46.75;;;19.83;;
31043;SDS011;17710;52.520;13.352;2023-02-10T13:11:50;41.03;;;19.48;;
31043;SDS011;17710;52.520;13.352;2023-02-10T13:14:29;45.33;;;18.90;;
31043;SDS011;17710;52.520;13.352;2023-02-10T13:16:57;45.35;;;19.20;;
31043;SDS011;17710;52.520;13.352;2023-02-10T13:19:30;50.92;;;18.50;;
31043;SDS011;17710;52.520;13.352;2023-02-10T13:22:05;38.45;;;17.17;;
31043;SDS011;17710;52.520;13.352;2023-02-10T13:24:39;40.25;;;17.48;;
31043;SDS011;17710;52.520;13.352;2023-02-10T13:27:19;40.70;;;18.02;;
31043;SDS011;17710;52.520;13.352;2023-02-10T13:29:55;46.50;;;19.27;;
31043;SDS011;17710;52.520;13.352;2023-02-10T13:32:37;39.20;;;17.90;;
31043;SDS011;17710;52.520;13.352;2023-02-10T13:35:16;38.35;;;17.35;;
31043;SDS011;17710;52.520;13.352;2023-02-10T13:37:46;41.33;;;17.95;;
31043;SDS011;17710;52.520;13.352;2023-02-10T13:40:16;41.50;;;18.10;;
31043;SDS011;17710;52.520;13.352;2023-02-10T13:42:51;45.13;;;16.90;;
31043;SDS011;17710;52.520;13.352;2023-02-10T13:45:21;39.05;;;18.35;;
31043;SDS011;17710;52.520;13.352;2023-02-10T13:47:50;44.42;;;17.40;;
31043;SDS011;17710;52.520;13.352;2023-02-10T13:50:41;40.88;;;17.80;;
31043;SDS011;17710;52.520;13.352;2023-02-10T13:53:29;44.75;;;17.75;;
31043;SDS011;17710;52.520;13.352;2023-02-10T13:56:12;44.95;;;17.20;;
31043;SDS011;17710;52.520;13.352;2023-02-10T13:58:49;45.17;;;17.38;;
31043;SDS011;17710;52.520;13.352;2023-02-10T14:01:30;43.20;;;17.48;;
31043;SDS011;17710;52.520;13.352;2023-02-10T14:04:25;45.85;;;17.42;;
31043;SDS011;17710;52.520;13.352;2023-02-10T14:09:34;42.35;;;14.30;;
31043;SDS011;17710;52.520;13.352;2023-02-10T14:12:04;42.15;;;17.08;;
31043;SDS011;17710;52.520;13.352;2023-02-10T14:14:51;46.50;;;17.35;;
31043;SDS011;17710;52.520;13.352;2023-02-10T14:17:22;44.25;;;18.30;;
31043;SDS011;17710;52.520;13.352;2023-02-10T14:19:55;39.83;;;16.92;;
31043;SDS011;17710;52.520;13.352;2023-02-10T14:22:24;42.97;;;17.35;;
31043;SDS011;17710;52.520;13.352;2023-02-10T14:24:54;43.75;;;17.70;;
31043;SDS011;17710;52.520;13.352;2023-02-10T14:27:24;42.30;;;18.33;;
31043;SDS011;17710;52.520;13.352;2023-02-10T14:29:53;39.30;;;18.65;;
31043;SDS011;17710;52.520;13.352;2023-02-10T14:32:22;43.45;;;18.70;;
31043;SDS011;17710;52.520;13.352;2023-02-10T14:34:52;42.90;;;18.42;;